FD57 weather

Baggett STOLport
Fort Pierce, Florida, United States

Public forecast

Using degrees Fahrenheit for public forecast. Weather courtesy of forecast.io.

Closest aviation weather report (METAR) to Baggett STOLport

Closest report is St Lucie County International Airport, 3.0 nm (5.5 km) ENE. Retrieved 2019/10/19 18:53 UTC (16 minutes ago):

KFPR 191853Z 16006KT 10SM -RA FEW055 SCT070 BKN110 27/24 A2983 RMK AO2 SLP102 P0000 T02720244

Closest aviation forecast (TAF) to Baggett STOLport

Closest forecast is St Lucie County International Airport, 3.0 nm (5.5 km) ENE. Retrieved 2019/10/19 18:45 UTC (24 minutes ago):

TAF KFPR 191742Z 1918/2018 18011KT P6SM VCSH SCT030 BKN080 TEMPO 1918/1919 4SM SHRA SCT015 BKN025 FM200100 20009KT P6SM VCSH SCT020 BKN040 BKN100 FM201400 23007KT P6SM VCSH SCT025 SCT100